sensor_id;sensor_type;location;lat;lon;timestamp;pressure;altitude;pressure_sealevel;temperature;humidity
61528;BME280;47395;42.032;-8.634;2023-03-18T00:01:03;100869.72;;;13.41;80.18
61528;BME280;47395;42.032;-8.634;2023-03-18T00:03:04;100868.13;;;13.38;81.26
61528;BME280;47395;42.032;-8.634;2023-03-18T00:05:07;100874.72;;;13.31;81.97
61528;BME280;47395;42.032;-8.634;2023-03-18T00:07:09;100873.31;;;13.40;82.70
61528;BME280;47395;42.032;-8.634;2023-03-18T00:09:10;100867.78;;;13.28;83.09
61528;BME280;47395;42.032;-8.634;2023-03-18T00:11:14;100882.44;;;13.03;84.40
61528;BME280;47395;42.032;-8.634;2023-03-18T00:13:15;100881.75;;;13.00;84.74
61528;BME280;47395;42.032;-8.634;2023-03-18T00:15:18;100875.34;;;13.20;84.05
61528;BME280;47395;42.032;-8.634;2023-03-18T00:17:20;100866.63;;;13.18;84.27
61528;BME280;47395;42.032;-8.634;2023-03-18T00:19:22;100878.16;;;13.17;84.06
61528;BME280;47395;42.032;-8.634;2023-03-18T00:21:24;100874.41;;;13.21;84.19
61528;BME280;47395;42.032;-8.634;2023-03-18T00:23:25;100867.53;;;13.33;83.84
61528;BME280;47395;42.032;-8.634;2023-03-18T00:25:27;100864.91;;;13.33;83.88
61528;BME280;47395;42.032;-8.634;2023-03-18T00:27:28;100866.13;;;13.42;83.16
61528;BME280;47395;42.032;-8.634;2023-03-18T00:29:29;100873.25;;;13.41;83.25
61528;BME280;47395;42.032;-8.634;2023-03-18T00:31:30;100869.31;;;13.49;83.23
61528;BME280;47395;42.032;-8.634;2023-03-18T00:33:31;100867.94;;;13.41;82.98
61528;BME280;47395;42.032;-8.634;2023-03-18T00:35:34;100873.81;;;13.47;83.03
61528;BME280;47395;42.032;-8.634;2023-03-18T00:37:36;100869.94;;;13.38;82.98
61528;BME280;47395;42.032;-8.634;2023-03-18T00:39:38;100865.97;;;13.45;83.15
61528;BME280;47395;42.032;-8.634;2023-03-18T00:41:43;100858.41;;;13.39;83.45
61528;BME280;47395;42.032;-8.634;2023-03-18T00:43:47;100860.00;;;13.41;83.36
61528;BME280;47395;42.032;-8.634;2023-03-18T00:45:56;100860.66;;;13.45;82.69
61528;BME280;47395;42.032;-8.634;2023-03-18T00:47:57;100859.31;;;13.54;82.71
61528;BME280;47395;42.032;-8.634;2023-03-18T00:49:58;100860.97;;;13.40;82.42
61528;BME280;47395;42.032;-8.634;2023-03-18T00:52:00;100850.09;;;13.45;81.82
61528;BME280;47395;42.032;-8.634;2023-03-18T00:54:06;100856.97;;;13.33;82.33
61528;BME280;47395;42.032;-8.634;2023-03-18T00:56:07;100856.59;;;13.39;82.13
61528;BME280;47395;42.032;-8.634;2023-03-18T00:58:10;100848.38;;;13.44;82.33
61528;BME280;47395;42.032;-8.634;2023-03-18T01:00:14;100848.22;;;13.47;82.37
61528;BME280;47395;42.032;-8.634;2023-03-18T01:02:20;100847.53;;;13.43;82.26
61528;BME280;47395;42.032;-8.634;2023-03-18T01:04:23;100848.81;;;13.52;81.85
61528;BME280;47395;42.032;-8.634;2023-03-18T01:06:27;100852.22;;;13.54;81.49
61528;BME280;47395;42.032;-8.634;2023-03-18T01:08:28;100851.56;;;13.65;81.23
61528;BME280;47395;42.032;-8.634;2023-03-18T01:10:29;100858.03;;;13.45;81.07
61528;BME280;47395;42.032;-8.634;2023-03-18T01:12:31;100871.63;;;13.39;82.10
61528;BME280;47395;42.032;-8.634;2023-03-18T01:14:34;100867.28;;;13.38;83.06
61528;BME280;47395;42.032;-8.634;2023-03-18T01:16:35;100867.31;;;13.22;83.98
61528;BME280;47395;42.032;-8.634;2023-03-18T01:18:37;100859.03;;;13.28;84.31
61528;BME280;47395;42.032;-8.634;2023-03-18T01:20:38;100857.50;;;13.24;84.29
61528;BME280;47395;42.032;-8.634;2023-03-18T01:22:39;100851.78;;;13.15;84.73
61528;BME280;47395;42.032;-8.634;2023-03-18T01:24:42;100853.84;;;13.10;85.28
61528;BME280;47395;42.032;-8.634;2023-03-18T01:26:44;100875.19;;;13.07;85.31
61528;BME280;47395;42.032;-8.634;2023-03-18T01:28:44;100873.13;;;13.12;85.40
61528;BME280;47395;42.032;-8.634;2023-03-18T01:30:47;100870.69;;;13.09;85.43
61528;BME280;47395;42.032;-8.634;2023-03-18T01:32:52;100882.78;;;13.13;85.52
61528;BME280;47395;42.032;-8.634;2023-03-18T01:34:54;100871.59;;;13.08;86.10
61528;BME280;47395;42.032;-8.634;2023-03-18T01:36:55;100871.75;;;13.21;85.48
61528;BME280;47395;42.032;-8.634;2023-03-18T01:39:01;100876.78;;;13.10;85.93
61528;BME280;47395;42.032;-8.634;2023-03-18T01:41:03;100880.91;;;12.99;86.28
61528;BME280;47395;42.032;-8.634;2023-03-18T01:43:31;100881.50;;;13.04;86.42
61528;BME280;47395;42.032;-8.634;2023-03-18T01:45:33;100879.81;;;13.03;86.36
61528;BME280;47395;42.032;-8.634;2023-03-18T01:47:36;100880.38;;;13.09;86.33
61528;BME280;47395;42.032;-8.634;2023-03-18T01:49:47;100880.56;;;12.89;87.12
61528;BME280;47395;42.032;-8.634;2023-03-18T01:52:14;100882.16;;;13.08;86.99
61528;BME280;47395;42.032;-8.634;2023-03-18T01:54:18;100879.72;;;13.05;87.27
61528;BME280;47395;42.032;-8.634;2023-03-18T01:56:19;100873.56;;;13.04;87.31
61528;BME280;47395;42.032;-8.634;2023-03-18T01:58:26;100871.19;;;13.00;87.52
61528;BME280;47395;42.032;-8.634;2023-03-18T02:00:27;100863.63;;;13.24;86.75
61528;BME280;47395;42.032;-8.634;2023-03-18T02:02:29;100858.41;;;13.39;86.13
61528;BME280;47395;42.032;-8.634;2023-03-18T02:04:34;100866.13;;;13.42;86.14
61528;BME280;47395;42.032;-8.634;2023-03-18T02:06:38;100856.25;;;13.45;85.66
61528;BME280;47395;42.032;-8.634;2023-03-18T02:08:39;100859.50;;;13.51;85.34
61528;BME280;47395;42.032;-8.634;2023-03-18T02:10:42;100861.88;;;13.55;84.83
61528;BME280;47395;42.032;-8.634;2023-03-18T02:12:50;100856.31;;;13.75;84.56
61528;BME280;47395;42.032;-8.634;2023-03-18T02:15:02;100857.66;;;13.67;84.39
61528;BME280;47395;42.032;-8.634;2023-03-18T02:17:14;100860.47;;;13.64;84.98
61528;BME280;47395;42.032;-8.634;2023-03-18T02:22:10;100858.47;;;13.37;86.57
61528;BME280;47395;42.032;-8.634;2023-03-18T02:27:30;100873.50;;;13.06;88.58
61528;BME280;47395;42.032;-8.634;2023-03-18T02:29:34;100853.78;;;13.12;88.74
61528;BME280;47395;42.032;-8.634;2023-03-18T02:31:44;100871.34;;;13.13;89.02
61528;BME280;47395;42.032;-8.634;2023-03-18T02:33:45;100865.19;;;13.12;89.36
61528;BME280;47395;42.032;-8.634;2023-03-18T02:35:51;100858.97;;;13.13;89.26
61528;BME280;47395;42.032;-8.634;2023-03-18T02:37:54;100878.34;;;12.98;89.60
61528;BME280;47395;42.032;-8.634;2023-03-18T02:40:32;100878.59;;;12.93;90.04
61528;BME280;47395;42.032;-8.634;2023-03-18T02:42:33;100880.94;;;12.83;90.59
61528;BME280;47395;42.032;-8.634;2023-03-18T02:44:39;100876.47;;;12.84;90.31
61528;BME280;47395;42.032;-8.634;2023-03-18T02:47:01;100875.06;;;12.78;90.96
61528;BME280;47395;42.032;-8.634;2023-03-18T02:49:05;100872.72;;;12.88;90.91
61528;BME280;47395;42.032;-8.634;2023-03-18T02:51:11;100870.28;;;12.85;91.22
61528;BME280;47395;42.032;-8.634;2023-03-18T02:53:13;100869.16;;;13.05;90.02
61528;BME280;47395;42.032;-8.634;2023-03-18T02:55:17;100862.47;;;13.14;89.40
61528;BME280;47395;42.032;-8.634;2023-03-18T02:57:18;100861.44;;;13.16;89.44
61528;BME280;47395;42.032;-8.634;2023-03-18T02:59:21;100857.84;;;13.17;89.36
61528;BME280;47395;42.032;-8.634;2023-03-18T03:01:22;100861.59;;;13.29;88.97
61528;BME280;47395;42.032;-8.634;2023-03-18T03:03:24;100860.56;;;13.32;88.80
61528;BME280;47395;42.032;-8.634;2023-03-18T03:05:26;100855.06;;;13.35;88.53
61528;BME280;47395;42.032;-8.634;2023-03-18T03:07:28;100849.69;;;13.37;88.35
61528;BME280;47395;42.032;-8.634;2023-03-18T03:09:31;100847.53;;;13.43;88.13
61528;BME280;47395;42.032;-8.634;2023-03-18T03:11:34;100849.44;;;13.41;87.95
61528;BME280;47395;42.032;-8.634;2023-03-18T03:13:43;100855.97;;;13.50;87.66
61528;BME280;47395;42.032;-8.634;2023-03-18T03:15:47;100846.00;;;13.39;87.58
61528;BME280;47395;42.032;-8.634;2023-03-18T03:17:50;100852.81;;;13.43;87.44
61528;BME280;47395;42.032;-8.634;2023-03-18T03:19:51;100851.50;;;13.36;88.13
61528;BME280;47395;42.032;-8.634;2023-03-18T03:21:52;100852.47;;;13.19;89.08
61528;BME280;47395;42.032;-8.634;2023-03-18T03:23:53;100848.53;;;13.26;88.72
61528;BME280;47395;42.032;-8.634;2023-03-18T03:25:54;100852.78;;;13.29;89.25
61528;BME280;47395;42.032;-8.634;2023-03-18T03:27:57;100849.09;;;13.31;89.33
61528;BME280;47395;42.032;-8.634;2023-03-18T03:29:58;100848.78;;;13.22;89.16
61528;BME280;47395;42.032;-8.634;2023-03-18T03:31:59;100855.69;;;13.24;89.68
61528;BME280;47395;42.032;-8.634;2023-03-18T03:34:01;100853.91;;;13.25;89.71
61528;BME280;47395;42.032;-8.634;2023-03-18T03:36:02;100857.50;;;13.24;89.84
61528;BME280;47395;42.032;-8.634;2023-03-18T03:38:04;100851.84;;;13.30;89.70
61528;BME280;47395;42.032;-8.634;2023-03-18T03:40:06;100862.88;;;13.22;89.77
61528;BME280;47395;42.032;-8.634;2023-03-18T03:42:07;100860.06;;;13.25;89.75
61528;BME280;47395;42.032;-8.634;2023-03-18T03:44:08;100855.97;;;13.19;90.40
61528;BME280;47395;42.032;-8.634;2023-03-18T03:46:10;100853.03;;;13.24;90.33
61528;BME280;47395;42.032;-8.634;2023-03-18T03:48:11;100846.13;;;13.22;90.30
61528;BME280;47395;42.032;-8.634;2023-03-18T03:50:14;100847.56;;;13.27;90.34
61528;BME280;47395;42.032;-8.634;2023-03-18T03:52:18;100842.81;;;13.18;90.63
61528;BME280;47395;42.032;-8.634;2023-03-18T03:54:23;100848.97;;;13.18;90.84
61528;BME280;47395;42.032;-8.634;2023-03-18T03:56:26;100850.94;;;13.15;90.94
61528;BME280;47395;42.032;-8.634;2023-03-18T03:58:27;100847.09;;;13.21;90.88
61528;BME280;47395;42.032;-8.634;2023-03-18T04:00:29;100856.59;;;13.39;90.47
61528;BME280;47395;42.032;-8.634;2023-03-18T04:02:30;100856.22;;;13.31;90.40
61528;BME280;47395;42.032;-8.634;2023-03-18T04:04:32;100854.69;;;13.27;90.63
61528;BME280;47395;42.032;-8.634;2023-03-18T04:06:33;100860.47;;;13.34;90.58
61528;BME280;47395;42.032;-8.634;2023-03-18T04:08:35;100856.84;;;13.20;91.11
61528;BME280;47395;42.032;-8.634;2023-03-18T04:10:36;100868.06;;;13.24;91.18
61528;BME280;47395;42.032;-8.634;2023-03-18T04:12:41;100864.66;;;13.22;91.25
61528;BME280;47395;42.032;-8.634;2023-03-18T04:14:42;100871.69;;;13.23;91.23
61528;BME280;47395;42.032;-8.634;2023-03-18T04:16:43;100873.38;;;13.24;91.38
61528;BME280;47395;42.032;-8.634;2023-03-18T04:18:45;100874.03;;;13.27;91.34
61528;BME280;47395;42.032;-8.634;2023-03-18T04:20:46;100875.22;;;13.38;91.14
61528;BME280;47395;42.032;-8.634;2023-03-18T04:23:13;100873.16;;;13.43;90.80
61528;BME280;47395;42.032;-8.634;2023-03-18T04:25:15;100870.59;;;13.41;90.95
61528;BME280;47395;42.032;-8.634;2023-03-18T04:27:16;100869.06;;;13.37;91.00
61528;BME280;47395;42.032;-8.634;2023-03-18T04:29:18;100877.34;;;13.47;90.74
61528;BME280;47395;42.032;-8.634;2023-03-18T04:31:19;100876.47;;;13.47;90.73
61528;BME280;47395;42.032;-8.634;2023-03-18T04:33:20;100871.13;;;13.48;90.46
61528;BME280;47395;42.032;-8.634;2023-03-18T04:35:21;100884.19;;;13.51;90.57
61528;BME280;47395;42.032;-8.634;2023-03-18T04:37:25;100888.53;;;13.52;90.49
61528;BME280;47395;42.032;-8.634;2023-03-18T04:39:30;100889.28;;;13.54;90.43
61528;BME280;47395;42.032;-8.634;2023-03-18T04:41:31;100883.81;;;13.57;90.32
61528;BME280;47395;42.032;-8.634;2023-03-18T04:43:37;100892.50;;;13.60;90.05
61528;BME280;47395;42.032;-8.634;2023-03-18T04:45:38;100895.06;;;13.61;90.01
61528;BME280;47395;42.032;-8.634;2023-03-18T04:47:40;100894.47;;;13.56;89.70
61528;BME280;47395;42.032;-8.634;2023-03-18T04:49:44;100892.28;;;13.48;90.09
61528;BME280;47395;42.032;-8.634;2023-03-18T04:51:47;100894.06;;;13.48;90.26
61528;BME280;47395;42.032;-8.634;2023-03-18T04:54:03;100888.03;;;13.29;91.19
61528;BME280;47395;42.032;-8.634;2023-03-18T04:56:05;100897.50;;;13.34;91.52
61528;BME280;47395;42.032;-8.634;2023-03-18T04:58:16;100898.47;;;13.16;91.90
61528;BME280;47395;42.032;-8.634;2023-03-18T05:00:29;100894.00;;;13.33;91.75
61528;BME280;47395;42.032;-8.634;2023-03-18T05:07:24;100888.13;;;13.28;91.46
61528;BME280;47395;42.032;-8.634;2023-03-18T05:09:35;100891.53;;;13.30;91.04
61528;BME280;47395;42.032;-8.634;2023-03-18T05:11:40;100896.72;;;13.31;91.00
61528;BME280;47395;42.032;-8.634;2023-03-18T05:14:01;100894.00;;;13.33;91.01
61528;BME280;47395;42.032;-8.634;2023-03-18T05:16:06;100910.41;;;13.24;91.35
61528;BME280;47395;42.032;-8.634;2023-03-18T05:18:10;100899.13;;;13.36;91.03
61528;BME280;47395;42.032;-8.634;2023-03-18T05:20:18;100902.44;;;13.40;90.98
61528;BME280;47395;42.032;-8.634;2023-03-18T05:22:20;100904.56;;;13.49;90.62
61528;BME280;47395;42.032;-8.634;2023-03-18T05:24:26;100914.56;;;13.44;90.47
61528;BME280;47395;42.032;-8.634;2023-03-18T05:26:27;100908.66;;;13.55;90.32
61528;BME280;47395;42.032;-8.634;2023-03-18T05:28:29;100910.19;;;13.59;90.18
61528;BME280;47395;42.032;-8.634;2023-03-18T05:31:05;100918.88;;;13.61;90.06
61528;BME280;47395;42.032;-8.634;2023-03-18T05:33:13;100912.06;;;13.57;90.05
61528;BME280;47395;42.032;-8.634;2023-03-18T05:35:25;100926.69;;;13.48;90.53
61528;BME280;47395;42.032;-8.634;2023-03-18T05:37:27;100922.06;;;13.52;90.50
61528;BME280;47395;42.032;-8.634;2023-03-18T05:39:39;100939.13;;;13.46;91.27
61528;BME280;47395;42.032;-8.634;2023-03-18T05:41:46;100942.13;;;13.40;91.82
61528;BME280;47395;42.032;-8.634;2023-03-18T05:43:51;100940.59;;;13.52;91.26
61528;BME280;47395;42.032;-8.634;2023-03-18T05:45:53;100930.34;;;13.62;90.89
61528;BME280;47395;42.032;-8.634;2023-03-18T05:48:01;100928.63;;;13.61;90.49
61528;BME280;47395;42.032;-8.634;2023-03-18T05:50:06;100937.91;;;13.68;90.14
61528;BME280;47395;42.032;-8.634;2023-03-18T05:52:09;100929.66;;;13.58;90.20
61528;BME280;47395;42.032;-8.634;2023-03-18T05:54:15;100929.38;;;13.63;89.90
61528;BME280;47395;42.032;-8.634;2023-03-18T05:56:17;100946.84;;;13.51;89.93
61528;BME280;47395;42.032;-8.634;2023-03-18T05:58:22;100945.53;;;13.42;89.97
61528;BME280;47395;42.032;-8.634;2023-03-18T06:00:29;100948.63;;;13.34;90.31
61528;BME280;47395;42.032;-8.634;2023-03-18T06:02:32;100954.69;;;13.36;90.27
61528;BME280;47395;42.032;-8.634;2023-03-18T06:04:33;100952.06;;;13.36;90.73
61528;BME280;47395;42.032;-8.634;2023-03-18T06:06:34;100953.75;;;13.37;90.58
61528;BME280;47395;42.032;-8.634;2023-03-18T06:08:38;100955.53;;;13.37;90.59
61528;BME280;47395;42.032;-8.634;2023-03-18T06:10:41;100961.94;;;13.32;90.38
61528;BME280;47395;42.032;-8.634;2023-03-18T06:12:43;100967.16;;;13.34;90.33
61528;BME280;47395;42.032;-8.634;2023-03-18T06:14:44;100972.53;;;13.32;90.70
61528;BME280;47395;42.032;-8.634;2023-03-18T06:16:46;100977.19;;;13.43;90.25
61528;BME280;47395;42.032;-8.634;2023-03-18T06:18:47;100975.78;;;13.38;89.96
61528;BME280;47395;42.032;-8.634;2023-03-18T06:20:50;100975.44;;;13.28;90.02
61528;BME280;47395;42.032;-8.634;2023-03-18T06:22:52;100979.13;;;13.25;90.24
61528;BME280;47395;42.032;-8.634;2023-03-18T06:24:56;100979.28;;;13.22;90.42
61528;BME280;47395;42.032;-8.634;2023-03-18T06:26:57;100985.16;;;13.27;90.49
61528;BME280;47395;42.032;-8.634;2023-03-18T06:28:58;100992.06;;;13.30;90.41
61528;BME280;47395;42.032;-8.634;2023-03-18T06:31:01;100998.66;;;13.39;90.53
61528;BME280;47395;42.032;-8.634;2023-03-18T06:33:02;100993.44;;;13.37;90.36
61528;BME280;47395;42.032;-8.634;2023-03-18T06:35:05;100988.75;;;13.42;90.34
61528;BME280;47395;42.032;-8.634;2023-03-18T06:37:09;100997.63;;;13.41;89.99
61528;BME280;47395;42.032;-8.634;2023-03-18T06:39:11;100991.22;;;13.45;89.76
61528;BME280;47395;42.032;-8.634;2023-03-18T06:41:14;101001.75;;;13.31;90.17
61528;BME280;47395;42.032;-8.634;2023-03-18T06:43:35;101003.69;;;13.27;89.66
61528;BME280;47395;42.032;-8.634;2023-03-18T06:45:38;101008.47;;;13.37;89.37
61528;BME280;47395;42.032;-8.634;2023-03-18T06:47:43;101017.25;;;13.21;89.96
61528;BME280;47395;42.032;-8.634;2023-03-18T06:49:44;101007.50;;;13.22;90.41
61528;BME280;47395;42.032;-8.634;2023-03-18T06:52:04;101017.06;;;13.24;89.89
61528;BME280;47395;42.032;-8.634;2023-03-18T06:54:06;101021.53;;;13.08;90.73
61528;BME280;47395;42.032;-8.634;2023-03-18T06:56:07;101018.88;;;13.08;90.58
61528;BME280;47395;42.032;-8.634;2023-03-18T06:58:22;101028.69;;;13.05;90.67
61528;BME280;47395;42.032;-8.634;2023-03-18T07:00:35;101027.31;;;12.98;90.99
61528;BME280;47395;42.032;-8.634;2023-03-18T07:02:39;101031.16;;;13.09;90.87
61528;BME280;47395;42.032;-8.634;2023-03-18T07:04:50;101033.03;;;13.06;90.67
61528;BME280;47395;42.032;-8.634;2023-03-18T07:06:52;101038.66;;;13.00;90.73
61528;BME280;47395;42.032;-8.634;2023-03-18T07:08:53;101034.16;;;13.02;91.03
61528;BME280;47395;42.032;-8.634;2023-03-18T07:10:54;101036.34;;;12.94;90.97
61528;BME280;47395;42.032;-8.634;2023-03-18T07:12:55;101045.94;;;13.13;90.78
61528;BME280;47395;42.032;-8.634;2023-03-18T07:14:57;101048.66;;;13.11;90.99
61528;BME280;47395;42.032;-8.634;2023-03-18T07:16:59;101049.09;;;13.19;90.93
61528;BME280;47395;42.032;-8.634;2023-03-18T07:19:00;101054.31;;;13.21;90.62
61528;BME280;47395;42.032;-8.634;2023-03-18T07:21:04;101059.31;;;13.26;90.23
61528;BME280;47395;42.032;-8.634;2023-03-18T07:23:06;101063.34;;;13.33;90.01
61528;BME280;47395;42.032;-8.634;2023-03-18T07:25:08;101065.91;;;13.35;90.13
61528;BME280;47395;42.032;-8.634;2023-03-18T07:27:10;101063.19;;;13.36;89.69
61528;BME280;47395;42.032;-8.634;2023-03-18T07:29:15;101070.19;;;13.37;89.45
61528;BME280;47395;42.032;-8.634;2023-03-18T07:31:24;101067.53;;;13.37;89.05
61528;BME280;47395;42.032;-8.634;2023-03-18T07:33:25;101070.19;;;13.37;88.88
61528;BME280;47395;42.032;-8.634;2023-03-18T07:35:26;101073.69;;;13.38;89.29
61528;BME280;47395;42.032;-8.634;2023-03-18T07:37:27;101073.28;;;13.78;89.06
61528;BME280;47395;42.032;-8.634;2023-03-18T07:39:28;101071.75;;;14.20;86.07
61528;BME280;47395;42.032;-8.634;2023-03-18T07:41:29;101073.44;;;14.21;84.34
61528;BME280;47395;42.032;-8.634;2023-03-18T07:43:30;101087.56;;;14.22;84.62
61528;BME280;47395;42.032;-8.634;2023-03-18T07:45:32;101084.22;;;14.49;84.20
61528;BME280;47395;42.032;-8.634;2023-03-18T07:47:36;101092.97;;;15.09;81.69
61528;BME280;47395;42.032;-8.634;2023-03-18T07:49:37;101091.53;;;16.30;78.23
61528;BME280;47395;42.032;-8.634;2023-03-18T07:51:38;101091.28;;;15.92;76.61
61528;BME280;47395;42.032;-8.634;2023-03-18T07:53:39;101088.53;;;15.66;77.91
61528;BME280;47395;42.032;-8.634;2023-03-18T07:55:40;101092.75;;;15.56;78.43
61528;BME280;47395;42.032;-8.634;2023-03-18T07:57:41;101084.34;;;15.20;79.88
61528;BME280;47395;42.032;-8.634;2023-03-18T07:59:42;101090.41;;;14.64;82.66
61528;BME280;47395;42.032;-8.634;2023-03-18T08:01:43;101095.03;;;14.75;83.01
61528;BME280;47395;42.032;-8.634;2023-03-18T08:03:45;101101.19;;;14.75;83.65
61528;BME280;47395;42.032;-8.634;2023-03-18T08:05:46;101107.38;;;14.76;83.76
61528;BME280;47395;42.032;-8.634;2023-03-18T08:07:47;101115.09;;;14.65;84.31
61528;BME280;47395;42.032;-8.634;2023-03-18T08:09:48;101113.56;;;14.60;84.67
61528;BME280;47395;42.032;-8.634;2023-03-18T08:11:50;101109.22;;;14.74;83.86
61528;BME280;47395;42.032;-8.634;2023-03-18T08:13:51;101105.53;;;14.62;84.27
61528;BME280;47395;42.032;-8.634;2023-03-18T08:15:52;101121.91;;;14.54;84.38
61528;BME280;47395;42.032;-8.634;2023-03-18T08:17:53;101122.94;;;14.52;84.84
61528;BME280;47395;42.032;-8.634;2023-03-18T08:19:54;101128.03;;;14.55;85.17
61528;BME280;47395;42.032;-8.634;2023-03-18T08:21:55;101129.84;;;14.54;85.06
61528;BME280;47395;42.032;-8.634;2023-03-18T08:23:57;101121.06;;;14.68;85.11
61528;BME280;47395;42.032;-8.634;2023-03-18T08:25:57;101130.91;;;14.66;85.14
61528;BME280;47395;42.032;-8.634;2023-03-18T08:27:59;101132.00;;;14.78;84.88
61528;BME280;47395;42.032;-8.634;2023-03-18T08:30:00;101122.44;;;14.90;84.57
61528;BME280;47395;42.032;-8.634;2023-03-18T08:32:01;101131.94;;;14.94;84.06
61528;BME280;47395;42.032;-8.634;2023-03-18T08:34:03;101131.56;;;15.00;83.49
61528;BME280;47395;42.032;-8.634;2023-03-18T08:36:06;101134.00;;;15.04;82.95
61528;BME280;47395;42.032;-8.634;2023-03-18T08:38:08;101140.09;;;15.06;82.66
61528;BME280;47395;42.032;-8.634;2023-03-18T08:40:10;101146.91;;;15.10;82.93
61528;BME280;47395;42.032;-8.634;2023-03-18T08:42:11;101149.19;;;15.16;82.34
61528;BME280;47395;42.032;-8.634;2023-03-18T08:44:12;101157.72;;;15.36;81.57
61528;BME280;47395;42.032;-8.634;2023-03-18T08:46:14;101153.34;;;15.49;81.05
61528;BME280;47395;42.032;-8.634;2023-03-18T08:48:15;101159.09;;;15.71;80.53
61528;BME280;47395;42.032;-8.634;2023-03-18T08:50:16;101160.56;;;15.89;80.02
61528;BME280;47395;42.032;-8.634;2023-03-18T08:52:17;101168.53;;;15.89;79.75
61528;BME280;47395;42.032;-8.634;2023-03-18T08:54:19;101160.47;;;16.05;79.46
61528;BME280;47395;42.032;-8.634;2023-03-18T08:56:21;101161.03;;;16.11;79.24
61528;BME280;47395;42.032;-8.634;2023-03-18T08:58:22;101169.59;;;16.29;78.24
61528;BME280;47395;42.032;-8.634;2023-03-18T09:00:24;101165.44;;;16.78;77.10
61528;BME280;47395;42.032;-8.634;2023-03-18T09:02:25;101171.19;;;16.85;75.23
61528;BME280;47395;42.032;-8.634;2023-03-18T09:04:27;101171.72;;;16.77;75.03
61528;BME280;47395;42.032;-8.634;2023-03-18T09:06:29;101176.03;;;16.52;76.17
61528;BME280;47395;42.032;-8.634;2023-03-18T09:08:31;101182.22;;;16.66;76.03
61528;BME280;47395;42.032;-8.634;2023-03-18T09:10:33;101184.66;;;16.56;76.46
61528;BME280;47395;42.032;-8.634;2023-03-18T09:12:35;101187.38;;;16.41;77.94
61528;BME280;47395;42.032;-8.634;2023-03-18T09:14:36;101186.19;;;16.86;77.04
61528;BME280;47395;42.032;-8.634;2023-03-18T09:16:37;101188.72;;;17.15;73.44
61528;BME280;47395;42.032;-8.634;2023-03-18T09:18:38;101196.47;;;17.05;75.05
61528;BME280;47395;42.032;-8.634;2023-03-18T09:20:40;101199.59;;;16.84;75.50
61528;BME280;47395;42.032;-8.634;2023-03-18T09:22:44;101205.59;;;16.88;76.44
61528;BME280;47395;42.032;-8.634;2023-03-18T09:24:45;101212.56;;;16.36;77.93
61528;BME280;47395;42.032;-8.634;2023-03-18T09:26:46;101205.97;;;16.69;76.47
61528;BME280;47395;42.032;-8.634;2023-03-18T09:28:47;101210.88;;;16.75;76.50
61528;BME280;47395;42.032;-8.634;2023-03-18T09:30:49;101226.84;;;16.75;76.21
61528;BME280;47395;42.032;-8.634;2023-03-18T09:32:50;101209.38;;;16.71;76.39
61528;BME280;47395;42.032;-8.634;2023-03-18T09:34:52;101218.50;;;16.67;75.92
61528;BME280;47395;42.032;-8.634;2023-03-18T09:36:53;101217.50;;;16.95;75.33
61528;BME280;47395;42.032;-8.634;2023-03-18T09:38:55;101220.13;;;17.23;74.21
61528;BME280;47395;42.032;-8.634;2023-03-18T09:41:27;101219.47;;;17.32;73.02
61528;BME280;47395;42.032;-8.634;2023-03-18T09:43:41;101223.41;;;17.53;73.20
61528;BME280;47395;42.032;-8.634;2023-03-18T09:46:00;101227.03;;;18.02;71.88
61528;BME280;47395;42.032;-8.634;2023-03-18T09:50:41;101220.94;;;18.62;68.95
61528;BME280;47395;42.032;-8.634;2023-03-18T09:52:52;101229.59;;;19.13;68.25
61528;BME280;47395;42.032;-8.634;2023-03-18T09:56:59;101239.41;;;18.03;71.11
61528;BME280;47395;42.032;-8.634;2023-03-18T09:59:29;101238.75;;;18.12;71.12
61528;BME280;47395;42.032;-8.634;2023-03-18T10:01:35;101227.63;;;18.19;71.75
61528;BME280;47395;42.032;-8.634;2023-03-18T10:05:51;101233.94;;;17.54;73.70
61528;BME280;47395;42.032;-8.634;2023-03-18T10:07:55;101233.53;;;17.21;74.40
61528;BME280;47395;42.032;-8.634;2023-03-18T10:10:03;101239.50;;;17.12;74.02
61528;BME280;47395;42.032;-8.634;2023-03-18T10:12:30;101249.16;;;17.00;73.86
61528;BME280;47395;42.032;-8.634;2023-03-18T10:17:05;101250.03;;;17.14;71.49
61528;BME280;47395;42.032;-8.634;2023-03-18T10:19:09;101247.03;;;17.18;70.34
61528;BME280;47395;42.032;-8.634;2023-03-18T10:21:31;101245.66;;;17.65;70.50
61528;BME280;47395;42.032;-8.634;2023-03-18T10:23:53;101250.41;;;19.43;67.18
61528;BME280;47395;42.032;-8.634;2023-03-18T10:26:04;101240.38;;;21.44;61.75
61528;BME280;47395;42.032;-8.634;2023-03-18T10:36:07;101265.78;;;24.61;47.84
61528;BME280;47395;42.032;-8.634;2023-03-18T10:38:24;101273.97;;;23.77;49.56
61528;BME280;47395;42.032;-8.634;2023-03-18T10:40:35;101274.03;;;21.89;52.63
61528;BME280;47395;42.032;-8.634;2023-03-18T10:42:39;101288.66;;;19.55;59.97
61528;BME280;47395;42.032;-8.634;2023-03-18T10:44:41;101286.41;;;18.04;64.62
61528;BME280;47395;42.032;-8.634;2023-03-18T10:46:43;101289.69;;;17.57;66.96
61528;BME280;47395;42.032;-8.634;2023-03-18T10:49:09;101278.97;;;17.96;67.17
61528;BME280;47395;42.032;-8.634;2023-03-18T10:51:33;101283.19;;;18.25;65.99
61528;BME280;47395;42.032;-8.634;2023-03-18T10:56:22;101298.00;;;19.02;61.73
61528;BME280;47395;42.032;-8.634;2023-03-18T10:58:23;101294.03;;;20.57;60.04
61528;BME280;47395;42.032;-8.634;2023-03-18T11:00:29;101287.19;;;22.02;52.90
61528;BME280;47395;42.032;-8.634;2023-03-18T11:02:34;101292.94;;;23.17;49.57
61528;BME280;47395;42.032;-8.634;2023-03-18T11:04:44;101296.53;;;23.66;48.99
61528;BME280;47395;42.032;-8.634;2023-03-18T11:06:55;101289.13;;;22.41;51.68
61528;BME280;47395;42.032;-8.634;2023-03-18T11:09:05;101294.34;;;20.75;54.87
61528;BME280;47395;42.032;-8.634;2023-03-18T11:11:21;101293.19;;;20.89;55.57
61528;BME280;47395;42.032;-8.634;2023-03-18T11:13:22;101282.91;;;20.73;56.36